Time;durP1;ratioP1;P1;durP2;ratioP2;P2;SDS_P1;SDS_P2;PMS_P1;PMS_P2;Temp;Humidity;BMP_temperature;BMP_pressure;BME280_temperature;BME280_humidity;BME280_pressure;Samples;Min_cycle;Max_cycle;Signal;HPM_P1;HPM_P2
2021/06/20 00:02:08;;;;;;;14.78;11.20;;;;;;;17.36;77.94;97915.45;1698718;84;20957;-75
2021/06/20 00:04:33;;;;;;;13.78;10.58;;;;;;;17.37;76.49;97916.48;1698665;84;21258;-75
2021/06/20 00:06:59;;;;;;;12.93;9.80;;;;;;;17.40;77.55;97915.02;1698790;84;20949;-75
2021/06/20 00:09:25;;;;;;;10.88;9.78;;;;;;;17.40;77.61;97914.45;1693724;84;20894;-75
2021/06/20 00:11:51;;;;;;;12.65;9.45;;;;;;;17.38;78.48;97917.29;1698885;84;21012;-75
2021/06/20 00:14:17;;;;;;;10.93;8.45;;;;;;;17.38;78.40;97922.20;1698661;84;20902;-75
2021/06/20 00:16:43;;;;;;;12.05;8.75;;;;;;;17.38;78.25;97914.55;1693620;83;21186;-75
2021/06/20 00:19:09;;;;;;;11.03;8.60;;;;;;;17.41;77.81;97916.62;1693427;84;21008;-75
2021/06/20 00:21:36;;;;;;;12.75;8.38;;;;;;;17.42;77.46;97911.38;1693708;84;21013;-75
2021/06/20 00:24:02;;;;;;;12.60;8.70;;;;;;;17.40;77.62;97913.09;1667296;86;21026;-75
2021/06/20 00:26:28;;;;;;;10.32;8.83;;;;;;;17.31;78.58;97908.77;1698801;84;21469;-75
2021/06/20 00:28:54;;;;;;;11.90;9.48;;;;;;;17.27;77.92;97910.56;1698616;84;21215;-75
2021/06/20 00:31:20;;;;;;;13.25;9.83;;;;;;;17.19;78.49;97917.66;1698834;84;20877;-75
2021/06/20 00:33:46;;;;;;;13.85;8.58;;;;;;;17.17;78.00;97917.96;1698702;84;20937;-75
2021/06/20 00:36:12;;;;;;;10.85;7.92;;;;;;;17.16;78.87;97921.03;1698783;84;20885;-75
2021/06/20 00:38:38;;;;;;;10.82;9.43;;;;;;;17.12;78.14;97920.08;1698669;84;21662;-75
2021/06/20 00:41:04;;;;;;;11.18;8.83;;;;;;;17.02;78.76;97913.58;1698719;84;21072;-75
2021/06/20 00:43:30;;;;;;;9.40;7.53;;;;;;;16.95;79.42;97909.16;1667244;86;20970;-75
2021/06/20 00:45:56;;;;;;;12.70;9.23;;;;;;;16.90;78.41;97900.53;1698669;84;21048;-75
2021/06/20 00:48:22;;;;;;;11.90;8.28;;;;;;;16.84;79.07;97905.95;1698577;84;21064;-75
2021/06/20 00:50:48;;;;;;;9.95;8.35;;;;;;;16.82;79.63;97910.92;1698834;84;20913;-75
2021/06/20 00:53:14;;;;;;;10.38;7.97;;;;;;;16.80;80.58;97909.08;1698612;84;21898;-75
2021/06/20 00:55:40;;;;;;;11.03;8.33;;;;;;;16.79;79.94;97905.55;1698713;84;21437;-75
2021/06/20 00:58:07;;;;;;;12.93;8.13;;;;;;;16.75;80.91;97901.02;1698543;84;20969;-75
2021/06/20 01:00:35;;;;;;;12.20;9.30;;;;;;;16.73;80.66;97899.18;1667325;86;21429;-75
2021/06/20 01:03:01;;;;;;;13.30;9.28;;;;;;;16.74;80.25;97907.06;1698772;84;20980;-75
2021/06/20 01:05:27;;;;;;;9.08;7.58;;;;;;;16.72;80.08;97909.32;1693735;84;21980;-75
2021/06/20 01:07:54;;;;;;;10.30;8.28;;;;;;;16.73;80.70;97903.28;1667417;86;20886;-75
2021/06/20 01:10:22;;;;;;;11.35;8.98;;;;;;;16.74;79.88;97905.69;1698554;84;20957;-75
2021/06/20 01:12:48;;;;;;;10.38;9.08;;;;;;;16.75;79.42;97899.13;1666367;84;21020;-75
2021/06/20 01:15:15;;;;;;;12.65;9.18;;;;;;;16.76;79.10;97894.45;1699040;83;20966;-75
2021/06/20 01:17:41;;;;;;;13.03;8.88;;;;;;;16.77;80.25;97897.42;1696484;84;21350;-75
2021/06/20 01:20:10;;;;;;;13.10;8.95;;;;;;;16.76;80.33;97895.81;1696455;84;20869;-75
2021/06/20 01:22:37;;;;;;;10.50;9.08;;;;;;;16.71;79.58;97903.61;1696561;84;21382;-75
2021/06/20 01:25:12;;;;;;;12.30;9.03;;;;;;;16.59;79.58;97893.30;1696596;84;20991;-75
2021/06/20 01:27:42;;;;;;;10.05;9.05;;;;;;;16.51;79.53;97895.46;1696563;84;20914;-75
2021/06/20 01:30:16;;;;;;;10.78;9.10;;;;;;;16.40;79.38;97891.41;1696385;84;21302;-75
2021/06/20 01:32:42;;;;;;;13.30;8.80;;;;;;;16.28;80.36;97898.89;1696527;84;20974;-75
2021/06/20 01:35:12;;;;;;;10.38;9.05;;;;;;;16.26;79.96;97897.05;1696466;84;21001;-75
2021/06/20 01:37:38;;;;;;;10.65;8.75;;;;;;;16.23;80.43;97893.56;1696566;84;21096;-74
2021/06/20 01:40:06;;;;;;;11.55;9.50;;;;;;;16.21;80.95;97890.91;1696513;83;20985;-74
2021/06/20 01:42:32;;;;;;;11.15;8.83;;;;;;;16.18;80.12;97880.06;1696686;84;21036;-75
2021/06/20 01:44:58;;;;;;;9.98;8.28;;;;;;;16.15;80.60;97880.72;1696468;83;20952;-74
2021/06/20 01:47:28;;;;;;;15.65;8.53;;;;;;;16.17;80.02;97877.09;1696586;84;21481;-74
2021/06/20 01:49:57;;;;;;;9.33;7.30;;;;;;;16.14;79.93;97872.25;1696515;83;20994;-75
2021/06/20 01:52:25;;;;;;;11.25;8.20;;;;;;;16.09;80.78;97868.31;1696372;83;21033;-75
2021/06/20 01:54:51;;;;;;;13.62;9.50;;;;;;;16.13;81.78;97861.08;1696519;84;21181;-75
2021/06/20 01:57:25;;;;;;;10.30;8.23;;;;;;;16.19;80.72;97856.27;1696656;84;21447;-75
2021/06/20 01:59:52;;;;;;;10.82;7.78;;;;;;;16.29;80.58;97851.28;1696513;84;20989;-75
2021/06/20 02:02:18;;;;;;;12.37;8.15;;;;;;;16.35;80.65;97854.11;1696591;84;21076;-75
2021/06/20 02:04:44;;;;;;;9.93;7.30;;;;;;;16.32;80.78;97856.12;1696337;84;21042;-75
2021/06/20 02:07:10;;;;;;;9.33;7.50;;;;;;;16.28;80.16;97841.48;1696753;84;21950;-75
2021/06/20 02:09:37;;;;;;;9.55;8.55;;;;;;;16.21;80.31;97840.34;1696438;84;20871;-75
2021/06/20 02:12:04;;;;;;;12.73;9.40;;;;;;;16.08;80.05;97837.45;1696458;84;21059;-75
2021/06/20 02:14:32;;;;;;;11.63;8.85;;;;;;;16.02;79.70;97840.09;1696394;84;20973;-75
2021/06/20 02:16:58;;;;;;;11.87;9.47;;;;;;;16.02;79.78;97835.19;1690946;84;21060;-75
2021/06/20 02:19:24;;;;;;;12.20;9.18;;;;;;;16.03;80.99;97842.25;1688256;85;21438;-75
2021/06/20 02:21:50;;;;;;;9.90;8.90;;;;;;;16.00;81.18;97841.53;1688342;85;20965;-75
2021/06/20 02:24:16;;;;;;;14.35;9.10;;;;;;;15.94;81.27;97845.53;1688406;85;20886;-75
2021/06/20 02:26:42;;;;;;;12.45;8.25;;;;;;;15.93;79.88;97845.30;1688569;85;20893;-75
2021/06/20 02:29:08;;;;;;;11.08;8.35;;;;;;;15.90;79.38;97851.41;1688493;85;20981;-75
2021/06/20 02:31:34;;;;;;;9.55;8.15;;;;;;;15.86;79.81;97852.59;1688540;85;21327;-75
2021/06/20 02:34:00;;;;;;;11.95;9.10;;;;;;;15.81;80.41;97845.92;1688403;84;22026;-75
2021/06/20 02:36:26;;;;;;;9.98;8.63;;;;;;;15.81;81.66;97850.02;1688649;85;20873;-75
2021/06/20 02:38:52;;;;;;;9.85;7.72;;;;;;;15.80;81.39;97848.39;1688477;84;20879;-75
2021/06/20 02:41:18;;;;;;;9.18;7.85;;;;;;;15.78;80.83;97840.52;1688637;84;21671;-75
2021/06/20 02:43:44;;;;;;;9.30;8.03;;;;;;;15.75;80.76;97839.80;1688356;85;21183;-75
2021/06/20 02:46:10;;;;;;;12.10;7.65;;;;;;;15.75;80.11;97842.52;1688592;85;21061;-75
2021/06/20 02:48:36;;;;;;;9.23;7.80;;;;;;;15.68;81.58;97849.56;1688401;84;21508;-75
2021/06/20 02:51:02;;;;;;;12.03;8.75;;;;;;;15.68;80.56;97851.73;1688560;85;20855;-75
2021/06/20 02:53:28;;;;;;;12.58;9.70;;;;;;;15.68;80.47;97853.67;1688619;85;20910;-75
2021/06/20 02:55:54;;;;;;;11.35;10.03;;;;;;;15.60;80.81;97853.84;1688528;85;21314;-75
2021/06/20 02:58:20;;;;;;;10.03;8.13;;;;;;;15.61;82.48;97852.75;1688497;85;22134;-75
2021/06/20 03:00:46;;;;;;;12.43;8.48;;;;;;;15.60;84.94;97851.11;1688577;85;20902;-75
2021/06/20 03:03:12;;;;;;;10.30;8.15;;;;;;;15.65;83.23;97852.37;1688551;84;20866;-75
2021/06/20 03:05:37;;;;;;;11.53;8.18;;;;;;;15.69;82.14;97851.17;1688630;85;21068;-75
2021/06/20 03:08:04;;;;;;;9.10;7.97;;;;;;;15.70;81.79;97854.14;1688445;84;21240;-75
2021/06/20 03:10:30;;;;;;;10.03;7.72;;;;;;;15.66;81.35;97855.35;1688553;85;21021;-75
2021/06/20 03:12:56;;;;;;;10.08;8.28;;;;;;;15.58;82.62;97856.66;1688324;85;20964;-75
2021/06/20 03:15:21;;;;;;;12.30;8.10;;;;;;;15.58;81.91;97850.64;1688634;85;20937;-76
2021/06/20 03:17:47;;;;;;;9.65;7.17;;;;;;;15.58;81.43;97856.66;1688373;83;21072;-75
2021/06/20 03:20:14;;;;;;;11.15;7.85;;;;;;;15.55;82.18;97858.08;1688292;85;21150;-75
2021/06/20 03:22:40;;;;;;;11.05;8.80;;;;;;;15.60;82.44;97853.05;1688417;84;21060;-75
2021/06/20 03:25:08;;;;;;;10.40;8.43;;;;;;;15.69;83.18;97851.17;1688277;85;20846;-75
2021/06/20 03:27:34;;;;;;;11.45;8.90;;;;;;;15.76;82.57;97845.50;1688716;84;21419;-75
2021/06/20 03:30:00;;;;;;;9.03;7.72;;;;;;;15.84;82.83;97843.91;1688386;85;20945;-75
2021/06/20 03:32:25;;;;;;;9.65;8.08;;;;;;;15.87;82.69;97848.73;1688703;85;21342;-75
2021/06/20 03:34:52;;;;;;;12.90;7.95;;;;;;;15.97;82.07;97849.79;1688522;85;20870;-75
2021/06/20 03:37:18;;;;;;;10.68;8.50;;;;;;;16.02;82.31;97855.11;1688600;84;21045;-75
2021/06/20 03:39:44;;;;;;;11.63;8.13;;;;;;;16.09;81.94;97851.92;1688239;84;21496;-75
2021/06/20 03:42:10;;;;;;;9.68;8.68;;;;;;;16.20;81.45;97855.14;1688608;85;20977;-75
2021/06/20 03:44:36;;;;;;;11.57;8.40;;;;;;;16.29;80.94;97857.31;1688358;84;20987;-75
2021/06/20 03:47:03;;;;;;;11.03;8.30;;;;;;;16.38;80.57;97864.96;1688544;85;21584;-75
2021/06/20 03:49:29;;;;;;;8.68;7.78;;;;;;;16.47;79.99;97865.77;1688248;85;21001;-75
2021/06/20 03:51:55;;;;;;;9.65;7.83;;;;;;;16.53;79.53;97867.22;1688485;85;20961;-75
2021/06/20 03:54:22;;;;;;;9.95;8.00;;;;;;;16.64;79.25;97868.50;1668576;85;20990;-75
2021/06/20 03:56:48;;;;;;;11.80;7.10;;;;;;;16.78;78.98;97860.73;1688580;84;21021;-76
2021/06/20 03:59:14;;;;;;;10.85;7.72;;;;;;;16.92;78.68;97859.98;1688352;85;20925;-75
2021/06/20 04:01:40;;;;;;;9.60;7.90;;;;;;;17.05;78.44;97856.24;1688462;85;21005;-75
2021/06/20 04:04:07;;;;;;;9.58;8.38;;;;;;;17.15;78.02;97855.89;1688425;85;20858;-75
2021/06/20 04:06:34;;;;;;;9.43;8.23;;;;;;;17.22;77.91;97853.22;1688461;84;21020;-75
2021/06/20 04:09:00;;;;;;;11.40;8.68;;;;;;;17.32;77.73;97851.49;1688399;84;21296;-76
2021/06/20 04:11:28;;;;;;;10.48;7.95;;;;;;;17.42;77.34;97857.98;1688267;85;20942;-76
2021/06/20 04:13:55;;;;;;;8.90;8.00;;;;;;;17.45;77.13;97858.14;1688541;84;20965;-75
2021/06/20 04:16:21;;;;;;;9.55;7.70;;;;;;;17.53;77.40;97862.55;1688494;83;21105;-75
2021/06/20 04:18:48;;;;;;;11.83;8.35;;;;;;;17.60;77.28;97858.14;1688371;85;21040;-75
2021/06/20 04:21:14;;;;;;;9.18;8.25;;;;;;;17.74;77.08;97852.47;1688518;85;21332;-75
2021/06/20 04:23:40;;;;;;;11.18;8.08;;;;;;;17.89;76.72;97854.66;1688404;85;20984;-75
2021/06/20 04:26:06;;;;;;;8.95;7.97;;;;;;;17.98;76.36;97854.61;1688469;85;20905;-75
2021/06/20 04:28:32;;;;;;;10.20;8.20;;;;;;;18.05;76.56;97854.89;1688481;84;20858;-75
2021/06/20 04:30:57;;;;;;;9.75;8.75;;;;;;;18.23;76.28;97850.89;1688582;84;20969;-75
2021/06/20 04:33:24;;;;;;;19.57;10.00;;;;;;;18.29;76.40;97849.56;1688394;84;21296;-75
2021/06/20 04:35:51;;;;;;;10.43;9.08;;;;;;;18.43;76.09;97849.28;1659874;86;21064;-75
2021/06/20 04:38:18;;;;;;;12.63;8.63;;;;;;;18.60;75.83;97848.33;1688387;85;20994;-75
2021/06/20 04:40:46;;;;;;;10.32;8.60;;;;;;;18.77;75.27;97846.84;1688122;85;21037;-75
2021/06/20 04:43:59;;;;;;;12.90;8.50;;;;;;;18.89;75.11;97846.09;1688766;85;21015;-75
2021/06/20 04:45:40;;;;;;;9.18;8.08;;;;;;;19.08;74.64;97845.00;1671597;83;22022;-76
2021/06/20 04:48:06;;;;;;;14.23;8.28;;;;;;;19.25;74.28;97846.77;1688618;85;20895;-76
2021/06/20 04:50:32;;;;;;;8.25;7.37;;;;;;;19.42;73.87;97843.02;1688455;85;21034;-76
2021/06/20 04:52:58;;;;;;;9.83;7.55;;;;;;;19.67;73.40;97832.30;1688558;85;20886;-76
2021/06/20 04:55:24;;;;;;;11.68;8.10;;;;;;;19.91;72.92;97830.66;1688341;85;20901;-76
2021/06/20 04:57:50;;;;;;;9.83;8.83;;;;;;;20.11;71.88;97822.86;1688541;85;21165;-76
2021/06/20 05:00:16;;;;;;;12.47;7.97;;;;;;;20.29;70.68;97810.43;1688286;85;20929;-76
2021/06/20 05:02:42;;;;;;;10.00;7.85;;;;;;;20.37;70.48;97807.32;1688669;85;21004;-76
2021/06/20 05:05:10;;;;;;;9.95;8.85;;;;;;;20.41;69.80;97803.28;1688244;85;20905;-76
2021/06/20 05:07:37;;;;;;;9.80;8.53;;;;;;;20.58;69.40;97801.64;1668252;85;39974;-76
2021/06/20 05:10:05;;;;;;;12.88;8.78;;;;;;;20.80;68.30;97807.18;1688345;85;21099;-76
2021/06/20 05:12:31;;;;;;;11.25;7.80;;;;;;;20.80;68.33;97817.61;1688418;85;20950;-76
2021/06/20 05:14:57;;;;;;;10.80;7.95;;;;;;;21.03;68.26;97808.78;1688170;85;21555;-76
2021/06/20 05:17:23;;;;;;;9.48;7.97;;;;;;;21.13;66.84;97809.06;1688272;83;20917;-76
2021/06/20 05:19:49;;;;;;;8.50;7.05;;;;;;;21.08;67.58;97811.27;1688328;84;20917;-76
2021/06/20 05:22:14;;;;;;;9.20;7.53;;;;;;;21.24;67.24;97808.53;1688459;85;21393;-76
2021/06/20 05:24:40;;;;;;;10.68;8.68;;;;;;;21.42;65.79;97800.73;1688245;84;21559;-76
2021/06/20 05:27:08;;;;;;;9.58;7.83;;;;;;;21.47;65.78;97799.11;1688542;84;20965;-76
2021/06/20 05:29:34;;;;;;;10.68;8.05;;;;;;;21.56;65.59;97803.28;1688390;85;20969;-76
2021/06/20 05:31:59;;;;;;;8.58;7.12;;;;;;;21.60;65.99;97805.53;1688540;84;21551;-76
2021/06/20 05:34:26;;;;;;;11.22;8.20;;;;;;;21.80;64.89;97803.66;1688497;84;21299;-76
2021/06/20 05:36:52;;;;;;;9.80;7.72;;;;;;;21.93;64.86;97799.61;1688461;84;21482;-76
2021/06/20 05:39:18;;;;;;;9.18;7.75;;;;;;;22.08;63.80;97799.39;1688337;84;20993;-76
2021/06/20 05:41:44;;;;;;;11.22;7.92;;;;;;;22.14;63.59;97793.81;1688358;85;20965;-76
2021/06/20 05:44:10;;;;;;;10.13;7.67;;;;;;;22.17;63.11;97805.50;1688360;85;20953;-76
2021/06/20 05:46:36;;;;;;;10.35;7.75;;;;;;;22.16;64.35;97814.94;1688399;84;21177;-76
2021/06/20 05:49:02;;;;;;;9.40;7.95;;;;;;;22.37;64.51;97817.94;1688319;84;20913;-76
2021/06/20 05:51:28;;;;;;;11.25;8.03;;;;;;;22.64;63.38;97825.20;1688534;85;21579;-76
2021/06/20 05:53:54;;;;;;;9.58;7.25;;;;;;;22.80;61.63;97831.45;1688355;85;20842;-76
2021/06/20 05:56:20;;;;;;;8.50;7.42;;;;;;;22.84;62.01;97833.50;1688266;85;21080;-76
2021/06/20 05:58:46;;;;;;;10.58;7.70;;;;;;;22.99;62.80;97845.08;1688495;85;21142;-76
2021/06/20 06:01:12;;;;;;;9.78;7.45;;;;;;;23.23;62.34;97842.55;1688138;85;21450;-76
2021/06/20 06:03:38;;;;;;;9.73;6.58;;;;;;;23.44;61.02;97840.77;1688486;85;21563;-76
2021/06/20 06:06:04;;;;;;;8.10;7.12;;;;;;;23.56;60.25;97835.03;1688283;85;20903;-76
2021/06/20 06:08:30;;;;;;;9.30;7.58;;;;;;;23.63;59.74;97833.22;1688574;85;20970;-76
2021/06/20 06:10:57;;;;;;;7.80;7.00;;;;;;;23.68;59.66;97819.68;1688309;85;21344;-76
2021/06/20 06:13:23;;;;;;;8.35;7.53;;;;;;;23.72;58.77;97821.11;1688411;84;21088;-76
2021/06/20 06:15:49;;;;;;;9.58;6.78;;;;;;;23.75;58.47;97825.30;1688435;84;20917;-76
2021/06/20 06:18:14;;;;;;;8.38;6.80;;;;;;;23.73;58.49;97823.49;1688403;83;20953;-76
2021/06/20 06:20:41;;;;;;;8.88;7.17;;;;;;;23.86;58.60;97817.19;1688445;85;20950;-76
2021/06/20 06:23:09;;;;;;;11.38;7.03;;;;;;;24.01;58.01;97824.52;1688811;85;21134;-76
2021/06/20 06:25:35;;;;;;;7.27;6.43;;;;;;;24.12;57.59;97826.87;1668857;85;20926;-75
2021/06/20 06:28:01;;;;;;;10.08;7.40;;;;;;;24.20;57.39;97832.72;1689077;85;20961;-75
2021/06/20 06:30:27;;;;;;;8.85;6.45;;;;;;;24.22;57.54;97826.80;1688339;85;21387;-75
2021/06/20 06:32:53;;;;;;;10.18;6.92;;;;;;;24.34;57.28;97826.59;1688525;85;20883;-76
2021/06/20 06:35:19;;;;;;;7.33;6.42;;;;;;;24.51;56.82;97829.98;1688337;85;21181;-75
2021/06/20 06:37:45;;;;;;;6.90;6.20;;;;;;;24.68;56.63;97826.05;1688395;85;21037;-75
2021/06/20 06:40:12;;;;;;;6.08;5.47;;;;;;;24.77;55.99;97821.59;1688392;85;21050;-75
2021/06/20 06:42:38;;;;;;;6.87;6.08;;;;;;;24.91;55.46;97823.16;1688558;85;21021;-75
2021/06/20 06:45:06;;;;;;;8.55;6.40;;;;;;;24.98;55.26;97826.02;1688285;85;20993;-75
2021/06/20 06:47:34;;;;;;;6.42;5.60;;;;;;;25.14;55.01;97825.02;1688745;85;21843;-75
2021/06/20 06:49:59;;;;;;;7.83;5.62;;;;;;;25.28;53.88;97825.14;1688329;84;20978;-75
2021/06/20 06:52:25;;;;;;;7.37;5.72;;;;;;;25.51;54.42;97823.58;1688555;84;21032;-75
2021/06/20 06:54:51;;;;;;;7.97;5.28;;;;;;;25.69;53.59;97816.20;1688463;85;21551;-75
2021/06/20 06:57:22;;;;;;;8.80;5.72;;;;;;;25.77;52.82;97823.44;1689057;84;20870;-75
2021/06/20 06:59:50;;;;;;;9.08;5.70;;;;;;;25.85;52.93;97816.76;1688336;85;21188;-75
2021/06/20 07:02:16;;;;;;;7.57;5.90;;;;;;;26.06;52.66;97815.30;1668309;85;21005;-75
2021/06/20 07:04:42;;;;;;;8.03;5.28;;;;;;;26.31;52.29;97818.23;1688273;85;21362;-75
2021/06/20 07:07:08;;;;;;;7.75;5.72;;;;;;;26.50;51.38;97814.41;1688626;85;20941;-75
2021/06/20 07:09:34;;;;;;;8.95;5.70;;;;;;;26.56;51.95;97812.83;1688245;85;20921;-75
2021/06/20 07:12:01;;;;;;;5.60;5.10;;;;;;;26.66;50.01;97814.28;1688687;85;21097;-75
2021/06/20 07:14:29;;;;;;;8.08;5.75;;;;;;;26.76;50.45;97821.06;1688330;85;20934;-75
2021/06/20 07:16:56;;;;;;;6.72;5.35;;;;;;;26.98;51.20;97819.93;1688581;85;21442;-75
2021/06/20 07:19:22;;;;;;;9.83;5.28;;;;;;;27.03;50.30;97818.80;1688111;83;21036;-76
2021/06/20 07:21:47;;;;;;;8.90;5.42;;;;;;;27.28;50.89;97813.28;1691903;84;20886;-76
2021/06/20 07:24:13;;;;;;;6.87;5.35;;;;;;;28.00;49.35;97802.97;1688342;84;20894;-75
2021/06/20 07:26:39;;;;;;;7.12;5.12;;;;;;;28.00;49.35;97802.97;1688232;85;21020;-75
2021/06/20 07:29:05;;;;;;;7.80;5.55;;;;;;;28.20;49.06;97809.71;1688447;85;21520;-76
2021/06/20 07:31:31;;;;;;;8.45;5.65;;;;;;;28.29;49.05;97809.32;1688786;85;20929;-76
2021/06/20 07:33:57;;;;;;;6.65;5.65;;;;;;;28.55;48.98;97797.69;1688485;84;20976;-76
2021/06/20 07:36:23;;;;;;;8.93;6.67;;;;;;;28.59;48.31;97798.45;1688230;85;21895;-76
2021/06/20 07:38:49;;;;;;;9.35;6.67;;;;;;;28.71;48.76;97798.59;1688110;85;20956;-76
2021/06/20 07:41:15;;;;;;;7.78;5.92;;;;;;;28.73;48.85;97795.42;1688297;85;20956;-76
2021/06/20 07:43:41;;;;;;;7.80;5.50;;;;;;;28.61;48.08;97797.44;1688421;84;21025;-76
2021/06/20 07:46:07;;;;;;;9.25;5.15;;;;;;;28.85;48.79;97796.34;1688557;85;20984;-76
2021/06/20 07:48:35;;;;;;;9.28;5.45;;;;;;;28.89;47.81;97799.35;1688374;85;22079;-76
2021/06/20 07:51:00;;;;;;;6.87;5.05;;;;;;;29.00;48.03;97797.09;1688577;85;20985;-76
2021/06/20 07:53:26;;;;;;;8.83;6.78;;;;;;;29.27;47.75;97786.95;1688761;85;21488;-76
2021/06/20 07:55:52;;;;;;;7.22;5.65;;;;;;;29.48;46.98;97783.20;1688383;84;20878;-76
2021/06/20 07:58:18;;;;;;;9.60;5.87;;;;;;;30.22;45.92;97757.23;1688746;85;20909;-76
2021/06/20 08:00:44;;;;;;;6.00;4.75;;;;;;;30.22;45.92;97757.23;1668589;85;21018;-76
2021/06/20 08:03:10;;;;;;;6.67;4.62;;;;;;;31.04;44.13;97763.20;1668403;85;20953;-76
2021/06/20 08:05:36;;;;;;;7.83;5.47;;;;;;;31.50;42.28;97761.72;1688293;85;21024;-76
2021/06/20 08:08:02;;;;;;;6.22;4.72;;;;;;;31.88;42.14;97765.89;1688527;85;20877;-77
2021/06/20 08:10:28;;;;;;;8.93;4.60;;;;;;;31.81;40.92;97761.81;1688832;85;20985;-77
2021/06/20 08:12:54;;;;;;;7.78;5.15;;;;;;;32.22;40.53;97761.45;1688711;85;21329;-76
2021/06/20 08:15:20;;;;;;;6.62;5.15;;;;;;;32.92;42.04;97768.87;1688063;85;21571;-77
2021/06/20 08:17:45;;;;;;;5.58;4.97;;;;;;;33.21;39.36;97777.41;1689166;83;20914;-77
2021/06/20 08:20:12;;;;;;;6.58;4.53;;;;;;;32.61;38.72;97778.11;1698390;84;20925;-77
2021/06/20 08:22:40;;;;;;;7.87;5.40;;;;;;;33.22;39.72;97779.61;1667660;86;21036;-77
2021/06/20 08:25:07;;;;;;;7.53;5.53;;;;;;;33.70;39.66;97778.88;1698525;84;21296;-77
2021/06/20 08:27:33;;;;;;;7.20;5.28;;;;;;;33.60;36.99;97776.52;1698499;84;21046;-77
2021/06/20 08:30:00;;;;;;;6.78;4.53;;;;;;;33.68;37.79;97768.70;1693485;84;20936;-77
2021/06/20 08:32:29;;;;;;;5.15;4.20;;;;;;;34.13;36.43;97764.52;1667334;85;21037;-77
2021/06/20 08:34:53;;;;;;;;;;;;;;;34.01;36.82;97771.47;1700992;82;20926;-77
2021/06/20 08:37:19;;;;;;;13.80;5.58;;;;;;;34.18;35.01;97764.58;1693678;84;20713;-77
2021/06/20 08:39:45;;;;;;;6.30;4.10;;;;;;;34.80;34.68;97767.28;1698413;84;21547;-77
2021/06/20 08:42:11;;;;;;;7.40;4.15;;;;;;;34.74;35.44;97765.02;1698735;84;20869;-77
2021/06/20 08:44:37;;;;;;;6.37;3.98;;;;;;;34.78;33.91;97763.48;1693644;84;20902;-77
2021/06/20 08:47:04;;;;;;;5.22;4.60;;;;;;;35.47;34.74;97755.36;1665612;84;20838;-77
2021/06/20 08:49:30;;;;;;;5.53;4.87;;;;;;;35.90;33.62;97745.48;1667160;85;21161;-77
2021/06/20 08:51:57;;;;;;;6.17;4.40;;;;;;;36.23;33.87;97744.48;1698545;84;20917;-77
2021/06/20 08:54:23;;;;;;;7.10;4.10;;;;;;;36.47;33.42;97746.89;1698420;84;21410;-77
2021/06/20 08:56:50;;;;;;;6.80;4.10;;;;;;;36.24;32.38;97753.77;1667206;86;20894;-77
2021/06/20 08:59:19;;;;;;;;;;;;;;;36.43;32.00;97750.64;1701111;84;20926;-77
2021/06/20 09:01:44;;;;;;;4.75;4.12;;;;;;;36.72;31.62;97748.15;1698057;83;21110;-77
2021/06/20 09:04:13;;;;;;;5.75;3.72;;;;;;;36.84;31.85;97753.59;1698703;84;20885;-77
2021/06/20 09:06:38;;;;;;;7.53;4.42;;;;;;;37.26;30.61;97751.09;1667150;86;21048;-77
2021/06/20 09:09:08;;;;;;;4.03;3.62;;;;;;;37.17;31.01;97740.54;1698668;84;20897;-77
2021/06/20 09:11:39;;;;;;;6.60;3.75;;;;;;;37.83;31.11;97743.13;1661011;86;21351;-77
2021/06/20 09:14:15;;;;;;;5.83;3.98;;;;;;;37.93;30.69;97741.88;1698491;84;21414;-77
2021/06/20 09:16:53;;;;;;;7.73;3.80;;;;;;;38.06;29.44;97736.86;1667278;86;20997;-77
2021/06/20 09:19:34;;;;;;;;;;;;;;;38.37;29.79;97735.31;1700930;83;21013;-76
2021/06/20 09:22:05;;;;;;;4.50;3.40;;;;;;;37.24;29.52;97735.23;1693950;84;20131;-77
2021/06/20 09:24:30;;;;;;;6.83;3.98;;;;;;;37.28;29.42;97737.30;1698368;83;21029;-77
2021/06/20 09:26:58;;;;;;;5.25;4.08;;;;;;;37.77;29.71;97732.27;1693394;84;21334;-77
2021/06/20 09:29:36;;;;;;;7.15;3.95;;;;;;;38.23;29.40;97730.92;1693513;84;21006;-77
2021/06/20 09:32:05;;;;;;;6.53;4.45;;;;;;;38.20;28.82;97729.80;1698983;84;20982;-77
2021/06/20 09:34:50;;;;;;;5.17;3.50;;;;;;;38.93;28.10;97728.91;1667739;86;21398;-77
2021/06/20 09:37:20;;;;;;;4.50;3.55;;;;;;;38.62;26.92;97729.89;1698641;83;20921;-77
2021/06/20 09:39:46;;;;;;;7.58;3.35;;;;;;;38.80;27.93;97714.97;1667475;86;21162;-77
2021/06/20 09:42:17;;;;;;;5.00;4.12;;;;;;;39.20;26.66;97712.45;1698779;84;20978;-77
2021/06/20 09:44:50;;;;;;;3.92;3.55;;;;;;;39.42;25.45;97709.36;1689154;84;20989;-77
2021/06/20 09:47:18;;;;;;;4.37;3.20;;;;;;;39.68;26.34;97705.44;1698514;84;21013;-77
2021/06/20 09:49:48;;;;;;;3.95;3.05;;;;;;;40.44;25.54;97701.69;1698533;84;21045;-77
2021/06/20 09:52:15;;;;;;;4.50;3.62;;;;;;;41.12;23.90;97692.39;1665786;84;22759;-78
2021/06/20 09:54:54;;;;;;;4.42;3.40;;;;;;;39.16;25.71;97699.11;1693596;84;20985;-78
2021/06/20 09:57:21;;;;;;;4.78;3.02;;;;;;;39.08;25.18;97705.72;1667233;85;21029;-77
2021/06/20 10:00:00;;;;;;;8.70;3.72;;;;;;;40.33;23.47;97703.00;1669064;84;22030;-77
2021/06/20 10:02:29;;;;;;;4.58;3.45;;;;;;;38.26;25.85;97702.46;1692930;83;21371;-77
2021/06/20 10:04:56;;;;;;;6.90;4.40;;;;;;;36.28;28.17;97707.87;1667257;86;21324;-77
2021/06/20 10:07:28;;;;;;;5.83;3.98;;;;;;;37.86;26.63;97696.16;1698521;84;20973;-77
2021/06/20 10:09:56;;;;;;;3.95;3.40;;;;;;;38.82;25.97;97694.03;1698541;84;20979;-78
2021/06/20 10:12:23;;;;;;;4.03;3.47;;;;;;;40.08;24.83;97697.88;1667316;86;20982;-78
2021/06/20 10:14:51;;;;;;;3.60;2.98;;;;;;;38.62;26.17;97698.77;1698865;84;21110;-78
2021/06/20 10:17:29;;;;;;;7.30;4.12;;;;;;;37.97;26.48;97695.86;1667205;86;21473;-78
2021/06/20 10:19:57;;;;;;;9.25;3.58;;;;;;;39.18;25.37;97697.98;1698423;83;20926;-77
2021/06/20 10:22:23;;;;;;;5.25;3.12;;;;;;;39.57;25.34;97697.48;1667295;86;21041;-77
2021/06/20 10:24:56;;;;;;;6.33;3.17;;;;;;;41.03;23.33;97706.72;1698618;84;20912;-77
2021/06/20 10:27:48;;;;;;;9.75;3.87;;;;;;;38.40;25.80;97700.25;1667314;86;20989;-78
2021/06/20 10:30:22;;;;;;;6.33;3.10;;;;;;;37.25;27.60;97705.73;1698582;84;21031;-78
2021/06/20 10:32:50;;;;;;;4.25;3.10;;;;;;;38.29;26.27;97700.12;1693735;84;21096;-76
2021/06/20 10:35:21;;;;;;;7.30;3.00;;;;;;;39.12;25.36;97692.19;1698473;84;20970;-76
2021/06/20 10:37:48;;;;;;;5.62;3.20;;;;;;;40.25;24.05;97685.42;1667129;86;21590;-78
2021/06/20 10:40:35;;;;;;;8.65;3.20;;;;;;;40.66;22.66;97689.92;1698688;84;20941;-78
2021/06/20 10:43:16;;;;;;;5.67;3.02;;;;;;;40.30;21.09;97689.02;1667499;86;21117;-76
2021/06/20 10:45:47;;;;;;;4.25;3.00;;;;;;;39.64;22.86;97697.09;1698583;84;21450;-78
2021/06/20 10:48:22;;;;;;;5.53;3.08;;;;;;;37.18;25.70;97695.55;1697371;83;21056;-78
2021/06/20 10:50:56;;;;;;;7.08;3.80;;;;;;;35.99;27.65;97694.05;1693644;84;21231;-77
2021/06/20 10:53:23;;;;;;;4.25;3.17;;;;;;;34.95;28.67;97693.27;1699244;84;21186;-78
2021/06/20 10:55:57;;;;;;;6.92;2.87;;;;;;;34.83;29.91;97694.63;1667506;86;22019;-77
2021/06/20 10:58:28;;;;;;;4.95;3.22;;;;;;;37.37;25.70;97688.55;1698983;84;21136;-77
2021/06/20 11:01:14;;;;;;;3.90;2.87;;;;;;;37.77;24.84;97686.45;1661395;86;21144;-77
2021/06/20 11:03:55;;;;;;;10.53;3.05;;;;;;;38.74;23.55;97686.36;1698756;84;21407;-78
2021/06/20 11:06:23;;;;;;;3.85;3.45;;;;;;;40.25;22.04;97689.69;1667359;86;21425;-76
2021/06/20 11:09:03;;;;;;;4.20;3.10;;;;;;;39.72;22.80;97684.76;1716030;81;21856;-77
2021/06/20 11:11:51;;;;;;;4.67;3.15;;;;;;;40.03;22.87;97686.59;1693493;84;21041;-77
2021/06/20 11:14:18;;;;;;;9.58;3.17;;;;;;;40.06;21.77;97694.75;1693548;84;20942;-77
2021/06/20 11:16:51;;;;;;;3.47;2.77;;;;;;;41.58;21.20;97686.07;1638599;86;20953;-77
2021/06/20 11:19:24;;;;;;;4.47;2.72;;;;;;;40.61;21.95;97682.11;1695639;83;20974;-77
2021/06/20 11:21:59;;;;;;;6.95;3.60;;;;;;;41.02;20.57;97681.01;1691160;84;21700;-77
2021/06/20 11:24:40;;;;;;;4.15;2.67;;;;;;;40.13;22.07;97680.19;1689714;83;21468;-78
2021/06/20 11:27:13;;;;;;;4.20;2.30;;;;;;;40.98;20.91;97673.95;1691194;84;20962;-78
2021/06/20 11:29:59;;;;;;;3.08;2.77;;;;;;;40.40;21.70;97675.52;1690273;84;20973;-76
2021/06/20 11:32:31;;;;;;;3.00;2.70;;;;;;;41.01;21.18;97678.00;1691031;84;21477;-78
2021/06/20 11:35:09;;;;;;;3.60;2.42;;;;;;;40.46;21.12;97670.12;1690916;85;21125;-76